Time;durP1;ratioP1;P1;durP2;ratioP2;P2;SDS_P1;SDS_P2;PMS_P1;PMS_P2;Temp;Humidity;BMP_temperature;BMP_pressure;BME280_temperature;BME280_humidity;BME280_pressure;Samples;Min_cycle;Max_cycle;Signal;HPM_P1;HPM_P2
2022/07/29 00:02:07;;;;;;;2.63;1.65;;;;;;;18.24;55.53;101638.09;5021645;28;20385;-57
2022/07/29 00:04:34;;;;;;;4.60;1.80;;;;;;;18.26;55.83;101634.19;5029079;28;20121;-57
2022/07/29 00:07:00;;;;;;;4.70;1.92;;;;;;;18.16;55.52;101620.28;5027597;28;20025;-56
2022/07/29 00:09:25;;;;;;;4.80;1.80;;;;;;;18.25;55.51;101629.84;5023576;28;20033;-56
2022/07/29 00:11:50;;;;;;;2.08;1.50;;;;;;;18.21;56.14;101622.34;5023844;28;20568;-58
2022/07/29 00:14:16;;;;;;;4.53;1.95;;;;;;;18.19;55.78;101622.56;5020880;28;20030;-57
2022/07/29 00:16:41;;;;;;;3.97;1.75;;;;;;;18.16;55.80;101628.34;5024661;28;20035;-57
2022/07/29 00:19:06;;;;;;;3.70;1.77;;;;;;;18.15;56.19;101628.53;5025753;28;20025;-56
2022/07/29 00:21:31;;;;;;;4.57;1.70;;;;;;;18.15;56.49;101626.69;5027044;28;20048;-56
2022/07/29 00:23:57;;;;;;;6.00;1.92;;;;;;;18.15;56.40;101629.38;5024492;28;20105;-57
2022/07/29 00:26:22;;;;;;;3.90;1.90;;;;;;;18.13;56.39;101631.44;5022725;28;20479;-55
2022/07/29 00:28:47;;;;;;;5.00;1.75;;;;;;;18.16;56.15;101622.97;5022309;28;20028;-55
2022/07/29 00:31:12;;;;;;;4.63;1.70;;;;;;;18.15;56.23;101621.31;5026175;28;20026;-56
2022/07/29 00:33:38;;;;;;;5.22;2.10;;;;;;;18.11;56.66;101620.06;5022147;28;20030;-57
2022/07/29 00:36:03;;;;;;;6.70;1.95;;;;;;;18.13;56.88;101620.69;5018713;28;20078;-55
2022/07/29 00:38:29;;;;;;;3.20;1.63;;;;;;;18.12;56.74;101612.81;5022246;28;20100;-56
2022/07/29 00:40:54;;;;;;;4.05;1.88;;;;;;;18.12;57.04;101605.56;5030021;28;20014;-56
2022/07/29 00:43:19;;;;;;;2.65;1.88;;;;;;;18.11;57.11;101608.47;5023254;28;20187;-56
2022/07/29 00:45:45;;;;;;;3.08;1.70;;;;;;;18.10;57.02;101606.81;5025650;28;20048;-55
2022/07/29 00:48:11;;;;;;;4.78;1.77;;;;;;;18.07;56.97;101607.22;5026555;28;20521;-56
2022/07/29 00:50:36;;;;;;;5.07;1.80;;;;;;;18.07;56.74;101605.34;5023144;28;20030;-53
2022/07/29 00:53:04;;;;;;;7.03;1.75;;;;;;;18.07;56.86;101608.03;5025857;28;20028;-56
2022/07/29 00:55:29;;;;;;;4.35;1.88;;;;;;;18.05;57.00;101609.28;5024756;28;20509;-55
2022/07/29 00:57:56;;;;;;;5.95;1.85;;;;;;;17.98;57.32;101600.38;5028615;28;20524;-56
2022/07/29 01:00:24;;;;;;;5.60;1.90;;;;;;;17.93;57.84;101611.72;5022708;28;20116;-57
2022/07/29 01:02:50;;;;;;;2.78;1.80;;;;;;;17.95;57.75;101621.25;5026482;28;20086;-56
2022/07/29 01:05:26;;;;;;;4.25;1.88;;;;;;;17.95;57.63;101631.16;5022248;28;20029;-57
2022/07/29 01:07:53;;;;;;;4.70;2.00;;;;;;;17.78;57.60;101635.19;5024797;28;20108;-57
2022/07/29 01:10:20;;;;;;;4.60;2.00;;;;;;;17.76;58.30;101643.47;5021227;28;20181;-57
2022/07/29 01:12:48;;;;;;;3.42;2.30;;;;;;;17.62;58.15;101653.25;5026496;28;20021;-57
2022/07/29 01:15:14;;;;;;;7.78;2.15;;;;;;;17.53;58.46;101642.88;5019224;28;20083;-55
2022/07/29 01:17:45;;;;;;;6.55;2.28;;;;;;;17.46;58.62;101658.09;5019356;28;20105;-55
2022/07/29 01:20:17;;;;;;;5.93;1.95;;;;;;;17.50;59.33;101649.47;5017951;28;20028;-56
2022/07/29 01:23:10;;;;;;;6.57;1.95;;;;;;;17.57;59.13;101631.53;5017466;28;20060;-56
2022/07/29 01:26:03;;;;;;;2.58;1.83;;;;;;;17.61;59.59;101623.91;5023507;28;20045;-56
2022/07/29 01:28:53;;;;;;;4.75;2.30;;;;;;;17.63;60.46;101614.63;5019974;28;20029;-56
2022/07/29 01:31:37;;;;;;;5.22;2.35;;;;;;;17.56;60.62;101605.69;5021975;28;20376;-55
2022/07/29 01:34:08;;;;;;;7.60;2.30;;;;;;;17.54;60.64;101590.81;5004298;28;20036;-55
2022/07/29 01:36:38;;;;;;;3.65;1.90;;;;;;;17.51;60.78;101602.78;5019402;28;20167;-53
2022/07/29 01:39:27;;;;;;;5.18;1.92;;;;;;;17.56;60.76;101594.13;5022181;28;20505;-57
2022/07/29 01:42:09;;;;;;;2.65;1.80;;;;;;;17.56;60.26;101592.25;5019006;28;20443;-57
2022/07/29 01:44:41;;;;;;;3.75;2.00;;;;;;;17.55;60.22;101587.09;5024235;28;20025;-57
2022/07/29 01:47:13;;;;;;;7.95;2.10;;;;;;;17.57;60.16;101577.81;5023256;28;20032;-57
2022/07/29 01:49:45;;;;;;;4.47;2.00;;;;;;;17.54;59.51;101572.00;5025566;28;20075;-56
2022/07/29 01:52:18;;;;;;;9.10;2.22;;;;;;;17.56;59.36;101573.47;5018868;28;20040;-57
2022/07/29 01:54:50;;;;;;;7.80;2.20;;;;;;;17.56;59.71;101561.91;5022615;28;20029;-57
2022/07/29 01:57:18;;;;;;;4.95;2.03;;;;;;;17.53;59.66;101557.75;5019860;28;20116;-57
2022/07/29 01:59:46;;;;;;;4.35;2.00;;;;;;;17.52;59.94;101553.41;5025615;28;20022;-57
2022/07/29 02:02:14;;;;;;;2.60;1.83;;;;;;;17.53;59.83;101547.00;5021877;28;20470;-56
2022/07/29 02:04:42;;;;;;;5.00;2.10;;;;;;;17.54;60.17;101548.66;5019801;28;20135;-57
2022/07/29 02:07:10;;;;;;;5.28;2.03;;;;;;;17.48;60.01;101545.94;5019388;28;20112;-56
2022/07/29 02:09:37;;;;;;;5.93;2.30;;;;;;;17.40;59.85;101530.84;5015625;28;20470;-57
2022/07/29 02:12:05;;;;;;;5.30;2.42;;;;;;;17.44;60.49;101542.84;5020782;28;20486;-57
2022/07/29 02:14:37;;;;;;;5.53;2.10;;;;;;;17.44;60.18;101542.00;5019296;28;20033;-56
2022/07/29 02:17:02;;;;;;;6.82;1.90;;;;;;;17.45;59.76;101543.66;5023203;28;20025;-56
2022/07/29 02:19:30;;;;;;;5.05;2.15;;;;;;;17.45;60.37;101541.81;5023837;28;20075;-55
2022/07/29 02:21:57;;;;;;;3.17;1.90;;;;;;;17.42;60.33;101531.47;5016044;28;20037;-55
2022/07/29 02:24:24;;;;;;;4.28;2.20;;;;;;;17.43;60.22;101526.94;5018661;28;20052;-56
2022/07/29 02:26:52;;;;;;;6.25;2.05;;;;;;;17.36;60.58;101524.22;5021986;28;20031;-57
2022/07/29 02:29:21;;;;;;;4.57;2.33;;;;;;;17.39;60.39;101523.81;5026796;28;20036;-57
2022/07/29 02:31:48;;;;;;;5.18;2.35;;;;;;;17.42;60.55;101533.31;5021022;28;20030;-57
2022/07/29 02:34:16;;;;;;;4.55;1.80;;;;;;;17.36;60.17;101526.06;5023177;28;20538;-56
2022/07/29 02:36:43;;;;;;;4.60;1.73;;;;;;;17.38;60.16;101527.53;5021194;28;20033;-56
2022/07/29 02:39:11;;;;;;;7.70;1.73;;;;;;;17.38;60.06;101516.78;5024451;28;20487;-55
2022/07/29 02:41:48;;;;;;;4.13;1.90;;;;;;;17.34;60.51;101526.25;5015517;28;20072;-57
2022/07/29 02:44:17;;;;;;;3.25;2.33;;;;;;;17.28;60.58;101532.41;5022462;28;20034;-56
2022/07/29 02:47:00;;;;;;;3.92;1.90;;;;;;;17.30;61.02;101525.81;5020950;28;20524;-55
2022/07/29 02:49:38;;;;;;;4.60;1.92;;;;;;;17.22;61.04;101517.09;5020091;28;20262;-57
2022/07/29 02:52:12;;;;;;;4.10;2.22;;;;;;;17.18;61.16;101521.22;5019746;28;20393;-55
2022/07/29 02:54:58;;;;;;;3.95;1.70;;;;;;;17.20;61.10;101532.56;5018015;28;20064;-56
2022/07/29 02:57:36;;;;;;;7.20;2.08;;;;;;;17.15;61.51;101540.41;5018347;28;20022;-57
2022/07/29 03:00:06;;;;;;;4.38;1.90;;;;;;;17.08;61.16;101542.22;5022505;28;20097;-55
2022/07/29 03:02:42;;;;;;;4.07;1.83;;;;;;;17.02;61.75;101547.31;5024192;28;20119;-53
2022/07/29 03:05:11;;;;;;;4.75;1.90;;;;;;;17.04;61.48;101542.56;5020830;28;20047;-57
2022/07/29 03:07:39;;;;;;;4.32;2.10;;;;;;;17.02;62.34;101546.47;5020394;28;20060;-57
2022/07/29 03:10:06;;;;;;;4.50;2.10;;;;;;;17.03;61.92;101546.28;5022457;28;20024;-56
2022/07/29 03:12:32;;;;;;;7.65;2.20;;;;;;;17.00;61.81;101535.94;5022005;28;20577;-58
2022/07/29 03:15:00;;;;;;;3.30;2.10;;;;;;;16.94;62.24;101538.59;5020042;28;20500;-57
2022/07/29 03:17:26;;;;;;;4.57;2.35;;;;;;;16.93;62.57;101545.81;5018097;28;20025;-57
2022/07/29 03:19:51;;;;;;;5.15;2.00;;;;;;;16.92;62.70;101540.63;5020900;28;20032;-57
2022/07/29 03:22:17;;;;;;;6.65;2.10;;;;;;;16.89;62.93;101543.72;5019506;28;20037;-57
2022/07/29 03:24:42;;;;;;;5.70;2.22;;;;;;;16.84;63.30;101532.75;5026005;28;20029;-57
2022/07/29 03:27:07;;;;;;;7.25;2.35;;;;;;;16.87;63.14;101538.53;5021011;28;20033;-57
2022/07/29 03:29:32;;;;;;;7.30;2.40;;;;;;;16.80;63.80;101545.72;5017604;28;20474;-57
2022/07/29 03:31:58;;;;;;;4.57;2.17;;;;;;;16.78;64.07;101553.13;5024586;28;20041;-57
2022/07/29 03:34:23;;;;;;;5.57;2.50;;;;;;;16.73;64.15;101548.31;5022614;28;20435;-57
2022/07/29 03:36:49;;;;;;;6.80;2.30;;;;;;;16.74;64.11;101549.16;5019224;28;20029;-56
2022/07/29 03:39:21;;;;;;;5.25;2.53;;;;;;;16.69;64.98;101555.09;5028167;28;20031;-56
2022/07/29 03:41:49;;;;;;;4.10;2.40;;;;;;;16.73;64.52;101553.69;5025916;28;20167;-57
2022/07/29 03:44:17;;;;;;;5.97;2.40;;;;;;;16.69;65.32;101549.72;5022543;28;20432;-57
2022/07/29 03:46:45;;;;;;;6.57;2.70;;;;;;;16.66;65.19;101549.28;5027412;28;20025;-57
2022/07/29 03:49:11;;;;;;;4.30;2.60;;;;;;;16.64;65.58;101548.63;5021240;28;20056;-56
2022/07/29 03:51:37;;;;;;;6.45;3.10;;;;;;;16.62;65.95;101543.47;5023385;28;20037;-57
2022/07/29 03:54:04;;;;;;;6.40;2.40;;;;;;;16.60;66.21;101540.16;5024509;28;20121;-57
2022/07/29 03:56:32;;;;;;;4.75;2.67;;;;;;;16.54;66.35;101535.56;5023127;28;20021;-56
2022/07/29 03:58:58;;;;;;;5.40;2.63;;;;;;;16.52;66.45;101536.78;5022160;28;20025;-57
2022/07/29 04:01:25;;;;;;;5.75;2.60;;;;;;;16.47;66.54;101536.50;5026374;28;20034;-57
2022/07/29 04:03:51;;;;;;;4.38;2.60;;;;;;;16.45;66.82;101547.41;5022010;28;20459;-56
2022/07/29 04:06:16;;;;;;;4.25;2.80;;;;;;;16.43;66.69;101547.59;5028601;28;20490;-57
2022/07/29 04:08:41;;;;;;;6.30;2.95;;;;;;;16.36;67.12;101551.25;5025275;28;20039;-56
2022/07/29 04:11:07;;;;;;;6.63;3.30;;;;;;;16.37;67.07;101558.28;5029487;28;20033;-56
2022/07/29 04:13:32;;;;;;;4.40;2.60;;;;;;;16.36;67.49;101553.94;5025823;28;20025;-57
2022/07/29 04:15:58;;;;;;;6.82;3.03;;;;;;;16.34;67.44;101550.63;5024746;28;20438;-56
2022/07/29 04:18:23;;;;;;;6.80;3.00;;;;;;;16.33;67.37;101548.97;5023247;28;20480;-56
2022/07/29 04:20:49;;;;;;;4.70;2.83;;;;;;;16.30;67.44;101538.63;5026333;28;20033;-57
2022/07/29 04:23:14;;;;;;;5.38;3.20;;;;;;;16.27;67.83;101545.19;5022609;28;20029;-57
2022/07/29 04:25:40;;;;;;;8.02;2.90;;;;;;;16.23;67.81;101543.91;5026735;28;20029;-57
2022/07/29 04:28:07;;;;;;;5.00;3.00;;;;;;;16.16;68.12;101531.44;5023324;28;20110;-56
2022/07/29 04:30:33;;;;;;;4.57;3.10;;;;;;;16.17;67.86;101528.56;5023338;28;20186;-56
2022/07/29 04:33:00;;;;;;;6.07;2.90;;;;;;;16.19;68.03;101528.38;5021159;28;20026;-56
2022/07/29 04:35:26;;;;;;;6.68;3.40;;;;;;;16.22;68.41;101542.25;5024771;28;20116;-57
2022/07/29 04:37:52;;;;;;;5.65;2.97;;;;;;;16.19;68.11;101541.78;5021965;28;20115;-57
2022/07/29 04:40:17;;;;;;;5.75;3.15;;;;;;;16.20;68.42;101544.31;5024823;28;20154;-56
2022/07/29 04:42:42;;;;;;;6.28;3.15;;;;;;;16.22;68.70;101544.94;5022515;28;20115;-57
2022/07/29 04:45:08;;;;;;;5.22;3.20;;;;;;;16.19;68.52;101549.81;5021449;28;20025;-56
2022/07/29 04:47:33;;;;;;;5.18;3.00;;;;;;;16.22;68.90;101546.78;5023013;28;20029;-57
2022/07/29 04:49:59;;;;;;;5.80;3.00;;;;;;;16.20;68.59;101555.03;5022561;28;20079;-57
2022/07/29 04:52:24;;;;;;;4.95;3.00;;;;;;;16.18;68.63;101553.53;5023109;28;20041;-56
2022/07/29 04:54:49;;;;;;;10.25;3.30;;;;;;;16.21;69.01;101566.56;5023788;28;20036;-57
2022/07/29 04:57:15;;;;;;;8.38;3.35;;;;;;;16.20;68.86;101562.25;5021871;28;20123;-56
2022/07/29 04:59:40;;;;;;;5.00;3.13;;;;;;;16.18;68.83;101562.41;5016972;28;20022;-56
2022/07/29 05:02:05;;;;;;;6.07;3.13;;;;;;;16.17;68.96;101568.78;5021054;28;20083;-56
2022/07/29 05:04:30;;;;;;;5.68;3.35;;;;;;;16.18;69.22;101581.16;5023831;28;20025;-55
2022/07/29 05:06:56;;;;;;;5.82;3.00;;;;;;;16.22;69.09;101581.63;5024884;28;20082;-57
2022/07/29 05:09:21;;;;;;;7.32;3.50;;;;;;;16.22;69.25;101574.44;5023335;28;20520;-56
2022/07/29 05:11:46;;;;;;;5.53;3.33;;;;;;;16.25;69.15;101574.03;5023051;28;20061;-57
2022/07/29 05:14:12;;;;;;;5.85;3.78;;;;;;;16.23;69.06;101560.00;5018883;28;20058;-55
2022/07/29 05:16:39;;;;;;;5.70;3.22;;;;;;;16.28;69.57;101573.66;5025032;28;20036;-57
2022/07/29 05:19:04;;;;;;;6.30;3.47;;;;;;;16.31;69.36;101578.63;5023889;28;20056;-57
2022/07/29 05:21:29;;;;;;;6.20;3.42;;;;;;;16.31;69.29;101573.28;5029394;28;20426;-57
2022/07/29 05:23:55;;;;;;;7.85;3.42;;;;;;;16.34;69.52;101572.88;5021742;28;20500;-57
2022/07/29 05:26:20;;;;;;;5.43;3.55;;;;;;;16.37;69.28;101572.50;5021409;28;20022;-56
2022/07/29 05:28:45;;;;;;;7.95;3.83;;;;;;;16.31;68.83;101570.59;5023874;28;20033;-56
2022/07/29 05:31:10;;;;;;;6.00;3.60;;;;;;;16.39;69.33;101581.19;5026385;28;20270;-57
2022/07/29 05:33:36;;;;;;;5.88;4.10;;;;;;;16.36;68.80;101589.63;5017962;28;20198;-56
2022/07/29 05:36:01;;;;;;;6.13;3.85;;;;;;;16.37;68.69;101591.28;5019023;28;20032;-56
2022/07/29 05:38:27;;;;;;;6.05;3.63;;;;;;;16.34;69.40;101594.34;5021509;28;20033;-56
2022/07/29 05:40:52;;;;;;;6.97;3.70;;;;;;;16.36;69.12;101588.78;5019077;28;20028;-57
2022/07/29 05:43:17;;;;;;;8.15;4.30;;;;;;;16.39;69.42;101601.81;5020586;28;20030;-57
2022/07/29 05:45:42;;;;;;;6.15;3.97;;;;;;;16.46;69.53;101604.53;5022515;28;20040;-57
2022/07/29 05:48:08;;;;;;;5.18;4.00;;;;;;;16.46;69.76;101604.53;5023136;28;20033;-56
2022/07/29 05:50:33;;;;;;;7.47;4.50;;;;;;;16.47;69.70;101593.63;5017910;28;20032;-57
2022/07/29 05:52:58;;;;;;;6.93;4.38;;;;;;;16.51;69.75;101610.19;5021333;28;20548;-56
2022/07/29 05:55:23;;;;;;;9.85;4.35;;;;;;;16.53;69.82;101608.16;5024126;28;20021;-56
2022/07/29 05:57:49;;;;;;;6.18;3.80;;;;;;;16.57;69.53;101614.78;5033643;28;20021;-57
2022/07/29 06:00:14;;;;;;;5.28;3.90;;;;;;;16.63;69.70;101608.66;5029907;28;20506;-56
2022/07/29 06:02:40;;;;;;;8.50;4.20;;;;;;;16.66;69.08;101602.94;5033057;28;20021;-56
2022/07/29 06:05:05;;;;;;;5.20;3.80;;;;;;;16.73;69.13;101609.19;5024626;28;20479;-56
2022/07/29 06:07:32;;;;;;;7.43;3.85;;;;;;;16.76;68.73;101598.06;5027859;28;20036;-55
2022/07/29 06:09:57;;;;;;;6.40;3.95;;;;;;;16.82;68.49;101600.00;5030641;28;20017;-56
2022/07/29 06:12:23;;;;;;;7.22;3.50;;;;;;;16.85;68.61;101596.09;5027727;28;20022;-56
2022/07/29 06:14:48;;;;;;;6.25;3.95;;;;;;;16.87;68.49;101605.63;5034127;28;20025;-55
2022/07/29 06:17:15;;;;;;;8.00;3.53;;;;;;;16.88;68.25;101607.28;5027209;28;20398;-57
2022/07/29 06:19:40;;;;;;;6.97;3.95;;;;;;;16.94;68.40;101605.66;5034206;28;20017;-56
2022/07/29 06:22:05;;;;;;;6.15;3.83;;;;;;;16.93;67.80;101598.63;5019293;28;20061;-56
2022/07/29 06:24:31;;;;;;;8.70;3.88;;;;;;;17.00;67.75;101599.50;5022563;28;20033;-56
2022/07/29 06:26:56;;;;;;;6.72;3.83;;;;;;;16.99;67.61;101604.06;5022004;28;20087;-56
2022/07/29 06:29:21;;;;;;;7.47;3.80;;;;;;;17.03;67.72;101605.31;5025311;28;20052;-56
2022/07/29 06:31:47;;;;;;;5.82;3.65;;;;;;;17.10;67.67;101599.19;5020775;28;20064;-56
2022/07/29 06:34:12;;;;;;;7.25;3.67;;;;;;;17.13;67.14;101606.88;5025488;28;20064;-56
2022/07/29 06:36:38;;;;;;;8.05;3.95;;;;;;;17.17;67.35;101605.44;5021655;28;20100;-55
2022/07/29 06:39:06;;;;;;;9.38;4.07;;;;;;;17.18;67.41;101605.25;5024751;28;20045;-57
2022/07/29 06:41:31;;;;;;;9.38;3.75;;;;;;;17.24;67.12;101606.31;5017093;28;20029;-56
2022/07/29 06:43:56;;;;;;;6.38;3.78;;;;;;;17.27;67.14;101601.38;5020682;28;20172;-57
2022/07/29 06:46:22;;;;;;;5.72;3.75;;;;;;;17.33;66.66;101600.59;5023860;28;20655;-56
2022/07/29 06:48:47;;;;;;;7.10;4.03;;;;;;;17.36;66.60;101610.13;5018840;28;20033;-55
2022/07/29 06:51:12;;;;;;;6.78;3.90;;;;;;;17.41;66.36;101612.22;5016871;28;20030;-56
2022/07/29 06:53:38;;;;;;;7.57;4.32;;;;;;;17.44;65.97;101607.28;5018366;28;20033;-56
2022/07/29 06:56:06;;;;;;;6.30;3.95;;;;;;;17.45;66.08;101606.25;5017140;28;20120;-57
2022/07/29 06:58:31;;;;;;;11.85;3.78;;;;;;;17.47;65.82;101606.88;5018127;28;20044;-56
2022/07/29 07:01:00;;;;;;;9.10;3.83;;;;;;;17.55;65.96;101613.94;5024369;28;20033;-57
2022/07/29 07:03:25;;;;;;;6.50;3.97;;;;;;;17.57;65.56;101623.47;5021959;28;20071;-57
2022/07/29 07:05:53;;;;;;;10.27;4.18;;;;;;;17.55;65.67;101609.41;5026464;28;20053;-57
2022/07/29 07:08:19;;;;;;;8.18;3.88;;;;;;;17.60;65.28;101615.00;5025876;28;21133;-57
2022/07/29 07:10:44;;;;;;;8.15;3.90;;;;;;;17.63;65.45;101617.31;5029185;28;20128;-57
2022/07/29 07:13:10;;;;;;;6.63;4.10;;;;;;;17.63;65.06;101605.72;5033627;28;20067;-57
2022/07/29 07:15:36;;;;;;;7.45;3.90;;;;;;;17.68;65.30;101624.00;5031926;28;20406;-56
2022/07/29 07:18:02;;;;;;;7.35;3.72;;;;;;;17.71;65.19;101615.53;5028345;28;20048;-57
2022/07/29 07:20:27;;;;;;;6.88;3.63;;;;;;;17.78;65.22;101619.91;5021709;28;20036;-57
2022/07/29 07:22:52;;;;;;;8.30;3.75;;;;;;;17.82;65.39;101620.34;5029392;28;20597;-57
2022/07/29 07:25:18;;;;;;;10.27;4.10;;;;;;;17.80;64.95;101617.03;5018824;28;20053;-56
2022/07/29 07:27:44;;;;;;;5.45;4.22;;;;;;;17.83;64.88;101619.31;5020754;28;20029;-57
2022/07/29 07:30:10;;;;;;;7.85;4.18;;;;;;;17.85;65.11;101622.63;5017816;28;20109;-57
2022/07/29 07:32:35;;;;;;;6.57;4.00;;;;;;;17.86;65.08;101618.91;5023741;28;20121;-57
2022/07/29 07:35:01;;;;;;;9.57;4.10;;;;;;;17.92;65.73;101620.78;5030161;28;20045;-57
2022/07/29 07:37:27;;;;;;;9.68;4.82;;;;;;;17.96;65.58;101622.06;5029305;28;20033;-58
2022/07/29 07:39:53;;;;;;;12.07;4.50;;;;;;;18.04;65.61;101623.75;5033527;28;20088;-57
2022/07/29 07:42:19;;;;;;;5.65;4.13;;;;;;;18.08;65.40;101617.78;5040319;28;20028;-57
2022/07/29 07:44:45;;;;;;;8.50;4.43;;;;;;;18.13;65.40;101614.47;5032005;28;20024;-57
2022/07/29 07:47:11;;;;;;;7.00;4.60;;;;;;;18.18;65.68;101614.69;5037493;28;20017;-57
2022/07/29 07:49:36;;;;;;;7.28;4.78;;;;;;;18.18;65.54;101610.16;5029947;28;20040;-56
2022/07/29 07:52:04;;;;;;;6.97;4.78;;;;;;;18.18;65.56;101618.22;5022867;28;20414;-57
2022/07/29 07:54:29;;;;;;;10.95;4.97;;;;;;;18.18;65.48;101612.00;5033378;28;20013;-57
2022/07/29 07:56:54;;;;;;;10.85;4.93;;;;;;;18.17;65.61;101613.03;5035290;28;20025;-58
2022/07/29 07:59:20;;;;;;;9.55;5.03;;;;;;;18.20;65.63;101616.16;5028058;28;20096;-56
2022/07/29 08:01:45;;;;;;;6.53;4.80;;;;;;;18.33;65.61;101620.75;5035375;28;20017;-57
2022/07/29 08:04:10;;;;;;;6.95;4.43;;;;;;;18.38;64.92;101615.59;5032577;28;20044;-57
2022/07/29 08:06:36;;;;;;;8.93;4.78;;;;;;;18.45;65.39;101615.59;5029186;28;20031;-57
2022/07/29 08:09:05;;;;;;;9.13;4.88;;;;;;;18.49;64.31;101612.28;5034823;28;20013;-57
2022/07/29 08:11:31;;;;;;;8.68;5.05;;;;;;;18.51;64.35;101617.50;5033668;28;20025;-56
2022/07/29 08:13:57;;;;;;;7.28;4.85;;;;;;;18.62;64.76;101621.44;5029124;28;20121;-57
2022/07/29 08:16:24;;;;;;;8.18;4.85;;;;;;;18.70;64.32;101622.09;5035769;28;20195;-57
2022/07/29 08:18:50;;;;;;;14.35;5.20;;;;;;;18.73;63.88;101627.06;5027446;28;20052;-57
2022/07/29 08:21:16;;;;;;;5.60;4.78;;;;;;;18.85;63.69;101625.44;5023612;28;20021;-57
2022/07/29 08:23:46;;;;;;;11.05;5.00;;;;;;;18.92;63.67;101621.91;5029881;28;20082;-57
2022/07/29 08:26:13;;;;;;;9.45;4.68;;;;;;;18.96;63.54;101621.28;5024097;28;20576;-57
2022/07/29 08:28:40;;;;;;;7.18;4.97;;;;;;;19.04;63.54;101628.31;5025898;28;20124;-56
2022/07/29 08:31:06;;;;;;;7.03;4.70;;;;;;;19.17;63.30;101620.25;5026521;28;20036;-57
2022/07/29 08:33:32;;;;;;;8.23;5.30;;;;;;;19.25;63.54;101620.03;5037896;28;20017;-56
2022/07/29 08:35:58;;;;;;;10.48;4.80;;;;;;;19.36;63.15;101619.41;5026982;28;20025;-57
2022/07/29 08:38:23;;;;;;;8.70;4.43;;;;;;;19.48;63.06;101628.50;5020171;28;20474;-57
2022/07/29 08:40:48;;;;;;;11.82;4.80;;;;;;;19.57;62.45;101629.13;5021112;28;20463;-57
2022/07/29 08:43:14;;;;;;;8.32;4.38;;;;;;;19.67;62.78;101632.25;5028461;28;20060;-57
2022/07/29 08:45:43;;;;;;;7.00;4.55;;;;;;;19.73;62.62;101626.00;5030322;28;20091;-57
2022/07/29 08:48:09;;;;;;;7.97;4.95;;;;;;;19.81;62.07;101635.72;5025778;28;20026;-57
2022/07/29 08:50:36;;;;;;;6.80;4.50;;;;;;;19.94;61.79;101626.75;5023484;28;20033;-57
2022/07/29 08:53:02;;;;;;;5.88;4.18;;;;;;;20.08;61.05;101631.88;5024668;28;20475;-57
2022/07/29 08:55:27;;;;;;;7.93;4.65;;;;;;;20.19;61.14;101637.63;5026644;28;20075;-56
2022/07/29 08:57:53;;;;;;;9.18;4.20;;;;;;;20.32;60.76;101640.28;5030354;28;20026;-55
2022/07/29 09:00:21;;;;;;;6.88;4.60;;;;;;;20.42;60.77;101644.19;5025706;28;20339;-57
2022/07/29 09:02:51;;;;;;;7.90;4.82;;;;;;;20.52;60.91;101632.09;5030647;28;20112;-57
2022/07/29 09:05:18;;;;;;;7.85;4.60;;;;;;;20.71;60.49;101629.28;5019143;28;20033;-57
2022/07/29 09:07:47;;;;;;;8.10;3.97;;;;;;;20.89;60.26;101625.84;5018477;28;20033;-57
2022/07/29 09:10:12;;;;;;;7.70;3.70;;;;;;;21.09;59.74;101633.75;5023412;28;20506;-57
2022/07/29 09:12:38;;;;;;;6.85;4.07;;;;;;;21.18;58.10;101629.75;5024603;28;20073;-57
2022/07/29 09:15:03;;;;;;;9.77;4.10;;;;;;;21.21;57.56;101632.00;5027417;28;20355;-56
2022/07/29 09:17:42;;;;;;;6.63;4.57;;;;;;;21.33;57.00;101626.72;5027449;28;20041;-57
2022/07/29 09:20:10;;;;;;;7.05;4.25;;;;;;;21.49;57.29;101628.03;5019645;28;20027;-56
2022/07/29 09:22:35;;;;;;;17.27;4.40;;;;;;;21.55;57.15;101619.03;5021995;28;20557;-57
2022/07/29 09:25:01;;;;;;;7.50;3.80;;;;;;;21.56;55.72;101628.78;5023409;28;20029;-57
2022/07/29 09:27:26;;;;;;;8.57;3.63;;;;;;;21.69;54.97;101622.44;5016803;28;20110;-56
2022/07/29 09:30:03;;;;;;;6.97;3.65;;;;;;;21.84;55.76;101631.81;5018865;28;20038;-57
2022/07/29 09:32:29;;;;;;;7.50;3.85;;;;;;;21.99;55.41;101619.78;5017753;28;20360;-57
2022/07/29 09:35:17;;;;;;;8.13;3.70;;;;;;;22.18;54.77;101640.38;5023919;28;20036;-57
2022/07/29 09:37:44;;;;;;;8.27;3.60;;;;;;;22.50;54.66;101641.78;5019009;28;20079;-57
2022/07/29 09:40:15;;;;;;;6.93;3.30;;;;;;;22.71;54.46;101636.94;5017247;28;20056;-57
2022/07/29 09:42:41;;;;;;;6.93;3.20;;;;;;;22.72;53.50;101636.69;5022925;28;20108;-57
2022/07/29 09:45:07;;;;;;;6.05;3.10;;;;;;;22.86;52.33;101623.81;5022748;28;20116;-58
2022/07/29 09:47:44;;;;;;;7.50;3.03;;;;;;;23.02;51.79;101635.84;5024255;28;20111;-57
2022/07/29 09:50:10;;;;;;;4.60;2.72;;;;;;;23.09;51.40;101631.13;5015681;28;20031;-57
2022/07/29 09:52:46;;;;;;;5.50;2.67;;;;;;;23.48;50.71;101635.88;5020532;28;20503;-57
2022/07/29 09:55:12;;;;;;;10.07;3.55;;;;;;;23.70;50.77;101637.97;5008786;28;20033;-58
2022/07/29 09:57:37;;;;;;;6.70;3.00;;;;;;;23.84;50.70;101630.41;5024053;28;20127;-57
2022/07/29 10:00:08;;;;;;;9.00;3.10;;;;;;;23.99;50.61;101638.84;5016934;28;20026;-58
2022/07/29 10:02:36;;;;;;;5.28;3.35;;;;;;;24.14;49.98;101641.06;5019447;28;20057;-58
2022/07/29 10:05:04;;;;;;;6.50;3.33;;;;;;;24.31;49.72;101640.09;5020331;28;20030;-57
2022/07/29 10:07:44;;;;;;;6.78;2.63;;;;;;;24.50;50.23;101638.00;5025203;28;20021;-57
2022/07/29 10:10:10;;;;;;;5.68;2.83;;;;;;;24.62;49.45;101636.06;5031589;28;20098;-56
2022/07/29 10:12:48;;;;;;;6.90;3.30;;;;;;;24.77;49.02;101640.91;5025069;28;20076;-58
2022/07/29 10:15:15;;;;;;;8.15;3.00;;;;;;;24.95;48.03;101637.97;5020341;28;20029;-58
2022/07/29 10:17:41;;;;;;;6.13;3.30;;;;;;;24.70;47.02;101638.38;5023289;28;20030;-57
2022/07/29 10:20:08;;;;;;;8.50;3.10;;;;;;;24.77;46.52;101635.50;5024235;28;20086;-57
2022/07/29 10:22:33;;;;;;;4.63;2.42;;;;;;;24.84;46.60;101638.88;5022494;28;20019;-58
2022/07/29 10:24:59;;;;;;;6.05;2.63;;;;;;;24.73;46.15;101637.06;5031710;28;20017;-58
2022/07/29 10:27:24;;;;;;;7.43;3.42;;;;;;;24.89;46.81;101625.38;5028775;28;20037;-57
2022/07/29 10:29:49;;;;;;;8.45;3.13;;;;;;;24.86;46.81;101620.41;5025518;28;20482;-58
2022/07/29 10:32:35;;;;;;;7.25;3.42;;;;;;;24.98;46.57;101625.78;5027477;28;20100;-58
2022/07/29 10:35:33;;;;;;;4.40;3.10;;;;;;;24.96;45.98;101630.66;5020859;28;20030;-58
2022/07/29 10:38:10;;;;;;;9.82;3.38;;;;;;;24.89;46.22;101625.38;5030192;28;20033;-58
2022/07/29 10:43:35;;;;;;;8.90;3.10;;;;;;;25.42;46.79;101634.91;5032112;28;20043;-56
2022/07/29 10:46:02;;;;;;;5.35;3.25;;;;;;;25.62;46.11;101628.94;5027297;28;20035;-58
2022/07/29 10:48:28;;;;;;;7.93;3.00;;;;;;;25.77;46.24;101629.19;5034858;28;20371;-57
2022/07/29 10:50:58;;;;;;;4.50;2.72;;;;;;;25.87;45.49;101631.22;5029248;28;20536;-58
2022/07/29 10:53:24;;;;;;;5.78;3.40;;;;;;;25.87;44.81;101628.50;5031333;28;20028;-58
2022/07/29 10:55:51;;;;;;;6.68;3.08;;;;;;;25.97;44.66;101620.44;5028130;28;20021;-57
2022/07/29 10:58:23;;;;;;;5.88;3.13;;;;;;;26.06;44.41;101623.56;5019379;28;20028;-57
2022/07/29 11:00:50;;;;;;;8.95;3.00;;;;;;;26.14;44.60;101629.38;5022810;28;20022;-58
2022/07/29 11:03:41;;;;;;;8.98;3.30;;;;;;;26.30;44.10;101624.06;5018903;28;20053;-58
2022/07/29 11:06:06;;;;;;;7.63;3.42;;;;;;;26.22;44.17;101612.56;5018458;28;20479;-58
2022/07/29 11:08:32;;;;;;;8.82;3.20;;;;;;;26.43;44.64;101615.53;5026027;28;20108;-58
2022/07/29 11:11:18;;;;;;;8.80;3.25;;;;;;;26.54;44.44;101620.00;5033022;28;20024;-58
2022/07/29 11:13:46;;;;;;;4.40;2.75;;;;;;;26.37;43.24;101608.41;5028240;28;20051;-58
2022/07/29 11:16:11;;;;;;;7.50;3.03;;;;;;;26.45;43.54;101614.19;5030576;28;20103;-57
2022/07/29 11:19:11;;;;;;;10.68;3.60;;;;;;;26.61;43.80;101617.91;5023941;28;20060;-58
2022/07/29 11:21:39;;;;;;;6.10;3.25;;;;;;;26.54;42.95;101609.91;5028181;28;20067;-57
2022/07/29 11:24:20;;;;;;;5.95;3.33;;;;;;;26.48;42.51;101607.41;5028845;28;20029;-58
2022/07/29 11:27:25;;;;;;;7.55;3.22;;;;;;;26.41;42.25;101620.41;5025853;28;20025;-58
2022/07/29 11:29:55;;;;;;;11.02;3.80;;;;;;;26.24;41.51;101615.84;5031765;28;20038;-58
2022/07/29 11:32:22;;;;;;;7.93;3.60;;;;;;;26.27;41.68;101613.69;5023401;28;20049;-58